SANE/SDE METAR and TAF weather

Enter ICAO airport designator
Station Type Date Time Source
SANE METAR 2019/07/20 13:30 UTC NOAA

SANE 201330Z 16002KT 0400 FG BKN003 BKN008 11/10 Q1010


Station Type Date Time Source
SANE Decoded METAR 2019/07/20 13:30 UTC NOAA

Santiago Del Estero Aero., Argentina (SANE) 27-46S 064-18W 199M
Jul 20, 2019 - 09:30 AM EDT / 2019.07.20 1330 UTC
Wind: from the SSE (160 degrees) at 2 MPH (2 KT):0
Visibility: less than 1 mile:0
Sky conditions: mostly cloudy
Weather: fog
Temperature: 51 F (11 C)
Dew Point: 50 F (10 C)
Relative Humidity: 93%
Pressure (altimeter): 29.83 in. Hg (1010 hPa)
ob: SANE 201330Z 16002KT 0400 FG BKN003 BKN008 11/10 Q1010
cycle: 13

Station Type Date Time Source
SANE TAF 2019/06/14 06:12 UTC NOAA

TAF TAF SANE 140500Z 1406/1506 18005KT 5000 BR OVC015 TX15/1418Z TN13/1410Z
TEMPO 1408/1411 14003KT 0400 BCFG/DZ BKN006 BKN010
BECMG 1413/1415 18010KT 2000 DZ OVC007

Example: see airport list